Saturday, November 18, 2017, 6:55 AM EST
Back to Local

KADW, Camp Springs / Andrews Air Force Base

Location: Andrews Air Force Base, MD, United States Lat: 38.817
Local Time: 6:55 AM EST (11:55 GMT) Lon: -76.85
Time Zone: US/Eastern Elev: 282 ft

Show me the last for .
Show Decoded

2017-11-18 05:56 METAR KADW 181056Z AUTO 18009KT 10SM FEW180 03/M01 A2995 RMK AO2 SLP151
                 T00271009 $ =
2017-11-18 04:56 METAR KADW 180956Z AUTO 18006KT 10SM SCT190 02/M01 A2999 RMK AO2 SLP164
                 T00181013 $ =
2017-11-18 03:56 METAR KADW 180856Z AUTO 17007KT 10SM CLR 02/M01 A3000 RMK AO2 SLP167 T00221014
                 57021 $ =
2017-11-18 02:56 METAR KADW 180756Z AUTO 17006KT 10SM CLR 02/M02 A3001 RMK AO2 SLP171 T00211017 $
                 =
2017-11-18 01:56 METAR KADW 180656Z AUTO 18006KT 10SM CLR 02/M02 A3004 RMK AO2 SLP181 T00151016 $
                 =
2017-11-18 00:56 METAR KADW 180556Z AUTO 18006KT 10SM CLR 03/M02 A3006 RMK AO2 SLP188 T00291022
                 10040 20003 57016 $ =
2017-11-17 23:56 METAR KADW 180456Z AUTO 18006KT 10SM CLR 02/M02 A3008 RMK AO2 SLP195 T00151025
                 401110003 $ =
2017-11-17 22:56 METAR KADW 180356Z AUTO 20005KT 10SM CLR 01/M02 A3010 RMK AO2 SLP202 T00071020 $
                 =
2017-11-17 21:56 METAR KADW 180256Z AUTO 19003KT 10SM CLR 02/M02 A3011 RMK AO2 SLP205 T00161022
                 56009 $ =
2017-11-17 20:56 METAR KADW 180156Z AUTO 20003KT 10SM CLR 02/M03 A3011 RMK AO2 SLP205 T00171028 $
                 =
2017-11-17 19:56 METAR KADW 180056Z AUTO 00000KT 10SM CLR 02/M02 A3012 RMK AO2 SLP208 T00201021 $
                 =
2017-11-17 18:56 METAR KADW 172356Z AUTO 18004KT 10SM CLR 04/M02 A3014 RMK AO2 SLP215 T00351023
                 10111 20027 53000 $ =
2017-11-17 17:56 METAR KADW 172256Z AUTO 00000KT 10SM CLR 05/M02 A3014 RMK AO2 SLP215 T00501023 $
                 =
2017-11-17 16:56 METAR KADW 172156Z AUTO 28004KT 10SM CLR 09/M04 A3013 RMK AO2 SLP211 T00861039 $
                 =
2017-11-17 15:56 METAR KADW 172056Z AUTO 31008KT 10SM CLR 10/M04 A3014 RMK AO2 SLP214 T01021042
                 55006 $ =
2017-11-17 14:56 METAR KADW 171956Z AUTO 29008KT 10SM CLR 11/M03 A3013 RMK AO2 SLP211 T01071034 $
                 =
2017-11-17 13:56 METAR KADW 171856Z AUTO 32011KT 10SM CLR 11/M04 A3014 RMK AO2 SLP214 T01081037 $
                 =
2017-11-17 12:56 METAR KADW 171756Z AUTO 33008G17KT 10SM CLR 10/M03 A3015 RMK AO2 SLP218
                 T01021028 10104 20047 58015 $ =
2017-11-17 11:56 METAR KADW 171656Z AUTO 33013KT 10SM CLR 10/M03 A3018 RMK AO2 SLP228 T00971033 $
                 =
2017-11-17 11:02 METAR KADW 171602Z AUTO 30011KT 10SM CLR 09/M02 A3020 RMK AO2 WSHFT 1554 SLP235
                 $ =
2017-11-17 10:56 METAR KADW 171556Z AUTO 34012KT 10SM CLR 09/M02 A3020 RMK AO2 SLP235 T00911025 $
                 =
2017-11-17 09:56 METAR KADW 171456Z AUTO 32013KT 10SM CLR 08/M02 A3020 RMK AO2 SLP235 T00811020
                 51013 $ =
2017-11-17 08:56 METAR KADW 171356Z AUTO 33012KT 10SM CLR 07/M02 A3019 RMK AO2 SLP232 T00691020 $
                 =
2017-11-17 07:56 METAR KADW 171256Z AUTO 32010KT 10SM CLR 06/M02 A3018 RMK AO2 SLP228 T00561020 $
                 =
2017-11-17 06:56 METAR KADW 171156Z AUTO 30009KT 10SM CLR 05/M02 A3016 RMK AO2 SLP221 T00471022
                 10069 20046 52012 $ =

Support USWX by starting your Amazon purchase here.